sensor_id;sensor_type;location;lat;lon;timestamp;noise_LAeq;noise_LA_min;noise_LA_max;noise_LA01;noise_LA95
69608;Laerm;57251;52.248;4.812;2024-01-27T00:00:00;40.46;37.34;44.72;;
69608;Laerm;57251;52.248;4.812;2024-01-27T00:00:11;42.16;40.13;44.40;;
69608;Laerm;57251;52.248;4.812;2024-01-27T00:00:21;41.86;39.79;44.33;;
69608;Laerm;57251;52.248;4.812;2024-01-27T00:00:34;43.52;40.28;46.41;;
69608;Laerm;57251;52.248;4.812;2024-01-27T00:00:45;40.83;38.80;42.87;;
69608;Laerm;57251;52.248;4.812;2024-01-27T00:00:55;40.43;37.54;45.11;;
69608;Laerm;57251;52.248;4.812;2024-01-27T00:01:05;38.66;36.59;43.26;;
69608;Laerm;57251;52.248;4.812;2024-01-27T00:01:15;38.47;36.83;40.10;;
69608;Laerm;57251;52.248;4.812;2024-01-27T00:01:26;38.21;36.02;40.39;;
69608;Laerm;57251;52.248;4.812;2024-01-27T00:01:36;37.99;36.09;42.55;;
69608;Laerm;57251;52.248;4.812;2024-01-27T00:01:52;37.89;35.77;39.97;;
69608;Laerm;57251;52.248;4.812;2024-01-27T00:02:03;37.56;35.90;39.28;;
69608;Laerm;57251;52.248;4.812;2024-01-27T00:02:13;38.43;35.69;45.01;;
69608;Laerm;57251;52.248;4.812;2024-01-27T00:02:25;37.87;36.06;44.39;;
69608;Laerm;57251;52.248;4.812;2024-01-27T00:02:39;37.47;35.20;41.08;;
69608;Laerm;57251;52.248;4.812;2024-01-27T00:02:55;37.24;34.95;43.82;;
69608;Laerm;57251;52.248;4.812;2024-01-27T00:03:05;37.25;35.19;40.90;;
69608;Laerm;57251;52.248;4.812;2024-01-27T00:03:16;38.47;36.49;40.61;;
69608;Laerm;57251;52.248;4.812;2024-01-27T00:03:26;39.12;37.04;42.12;;
69608;Laerm;57251;52.248;4.812;2024-01-27T00:03:36;38.39;36.11;43.51;;
69608;Laerm;57251;52.248;4.812;2024-01-27T00:03:47;36.72;34.18;41.16;;
69608;Laerm;57251;52.248;4.812;2024-01-27T00:03:57;36.47;34.46;38.82;;
69608;Laerm;57251;52.248;4.812;2024-01-27T00:04:07;36.58;34.80;38.12;;
69608;Laerm;57251;52.248;4.812;2024-01-27T00:04:17;37.28;35.46;39.64;;
69608;Laerm;57251;52.248;4.812;2024-01-27T00:04:28;36.46;34.75;37.94;;
69608;Laerm;57251;52.248;4.812;2024-01-27T00:04:38;36.95;35.07;38.52;;
69608;Laerm;57251;52.248;4.812;2024-01-27T00:04:48;36.65;35.13;38.05;;
69608;Laerm;57251;52.248;4.812;2024-01-27T00:04:58;36.95;35.02;40.19;;
69608;Laerm;57251;52.248;4.812;2024-01-27T00:05:09;37.22;35.10;39.91;;
69608;Laerm;57251;52.248;4.812;2024-01-27T00:05:19;38.50;36.58;42.72;;
69608;Laerm;57251;52.248;4.812;2024-01-27T00:05:29;38.41;36.67;41.37;;
69608;Laerm;57251;52.248;4.812;2024-01-27T00:05:40;38.60;36.45;41.90;;
69608;Laerm;57251;52.248;4.812;2024-01-27T00:05:50;38.18;36.44;39.94;;
69608;Laerm;57251;52.248;4.812;2024-01-27T00:06:00;37.42;35.29;39.78;;
69608;Laerm;57251;52.248;4.812;2024-01-27T00:06:11;37.98;35.69;40.74;;
69608;Laerm;57251;52.248;4.812;2024-01-27T00:06:21;38.97;36.67;42.80;;
69608;Laerm;57251;52.248;4.812;2024-01-27T00:06:31;38.36;35.91;40.35;;
69608;Laerm;57251;52.248;4.812;2024-01-27T00:06:41;42.46;38.29;45.63;;
69608;Laerm;57251;52.248;4.812;2024-01-27T00:06:52;38.96;36.27;42.22;;
69608;Laerm;57251;52.248;4.812;2024-01-27T00:07:02;37.49;35.44;39.77;;
69608;Laerm;57251;52.248;4.812;2024-01-27T00:07:12;40.22;36.60;45.57;;
69608;Laerm;57251;52.248;4.812;2024-01-27T00:07:22;41.38;38.88;44.82;;
69608;Laerm;57251;52.248;4.812;2024-01-27T00:07:35;41.03;38.39;44.45;;
69608;Laerm;57251;52.248;4.812;2024-01-27T00:07:45;39.41;37.66;41.48;;
69608;Laerm;57251;52.248;4.812;2024-01-27T00:07:55;39.18;36.75;41.51;;
69608;Laerm;57251;52.248;4.812;2024-01-27T00:08:06;38.06;35.80;43.98;;
69608;Laerm;57251;52.248;4.812;2024-01-27T00:08:16;41.66;37.80;46.89;;
69608;Laerm;57251;52.248;4.812;2024-01-27T00:08:26;38.64;36.85;42.16;;
69608;Laerm;57251;52.248;4.812;2024-01-27T00:08:36;40.13;37.19;43.68;;
69608;Laerm;57251;52.248;4.812;2024-01-27T00:08:47;39.62;37.86;41.79;;
69608;Laerm;57251;52.248;4.812;2024-01-27T00:08:57;40.10;37.30;43.16;;
69608;Laerm;57251;52.248;4.812;2024-01-27T00:09:07;39.22;37.17;41.46;;
69608;Laerm;57251;52.248;4.812;2024-01-27T00:09:17;38.76;37.09;40.50;;
69608;Laerm;57251;52.248;4.812;2024-01-27T00:09:28;39.37;37.13;41.43;;
69608;Laerm;57251;52.248;4.812;2024-01-27T00:09:38;38.35;36.60;41.33;;
69608;Laerm;57251;52.248;4.812;2024-01-27T00:09:48;38.27;36.16;39.77;;
69608;Laerm;57251;52.248;4.812;2024-01-27T00:09:58;38.45;36.22;40.23;;
69608;Laerm;57251;52.248;4.812;2024-01-27T00:10:10;37.81;35.73;39.62;;
69608;Laerm;57251;52.248;4.812;2024-01-27T00:10:20;38.29;36.77;40.10;;
69608;Laerm;57251;52.248;4.812;2024-01-27T00:10:30;38.38;37.03;39.99;;
69608;Laerm;57251;52.248;4.812;2024-01-27T00:10:40;38.05;36.13;39.52;;
69608;Laerm;57251;52.248;4.812;2024-01-27T00:10:51;39.04;36.40;41.01;;
69608;Laerm;57251;52.248;4.812;2024-01-27T00:11:01;40.59;38.01;43.55;;
69608;Laerm;57251;52.248;4.812;2024-01-27T00:11:11;41.89;37.45;47.64;;
69608;Laerm;57251;52.248;4.812;2024-01-27T00:11:22;38.55;36.63;40.89;;
69608;Laerm;57251;52.248;4.812;2024-01-27T00:11:34;39.89;36.14;42.89;;
69608;Laerm;57251;52.248;4.812;2024-01-27T00:11:45;40.70;38.59;43.22;;
69608;Laerm;57251;52.248;4.812;2024-01-27T00:11:55;43.27;40.48;49.03;;
69608;Laerm;57251;52.248;4.812;2024-01-27T00:12:05;41.12;38.63;43.26;;
69608;Laerm;57251;52.248;4.812;2024-01-27T00:12:16;40.96;39.07;44.10;;
69608;Laerm;57251;52.248;4.812;2024-01-27T00:12:26;40.35;38.16;42.10;;
69608;Laerm;57251;52.248;4.812;2024-01-27T00:12:36;39.19;37.79;40.99;;
69608;Laerm;57251;52.248;4.812;2024-01-27T00:12:47;39.34;37.87;41.10;;
69608;Laerm;57251;52.248;4.812;2024-01-27T00:12:57;38.42;36.61;40.36;;
69608;Laerm;57251;52.248;4.812;2024-01-27T00:13:08;38.48;36.45;40.58;;
69608;Laerm;57251;52.248;4.812;2024-01-27T00:13:18;37.64;35.98;41.65;;
69608;Laerm;57251;52.248;4.812;2024-01-27T00:13:28;37.43;35.09;39.35;;
69608;Laerm;57251;52.248;4.812;2024-01-27T00:13:38;38.06;36.45;40.53;;
69608;Laerm;57251;52.248;4.812;2024-01-27T00:13:49;37.91;35.89;42.13;;
69608;Laerm;57251;52.248;4.812;2024-01-27T00:13:59;38.37;36.44;40.49;;
69608;Laerm;57251;52.248;4.812;2024-01-27T00:14:09;41.73;38.80;46.70;;
69608;Laerm;57251;52.248;4.812;2024-01-27T00:14:20;42.31;40.02;45.09;;
69608;Laerm;57251;52.248;4.812;2024-01-27T00:14:30;43.48;40.49;48.42;;
69608;Laerm;57251;52.248;4.812;2024-01-27T00:14:40;41.27;38.39;44.48;;
69608;Laerm;57251;52.248;4.812;2024-01-27T00:14:50;41.78;38.80;45.34;;
69608;Laerm;57251;52.248;4.812;2024-01-27T00:15:01;42.92;40.11;46.48;;
69608;Laerm;57251;52.248;4.812;2024-01-27T00:15:11;42.07;39.47;45.60;;
69608;Laerm;57251;52.248;4.812;2024-01-27T00:15:21;41.65;38.93;46.31;;
69608;Laerm;57251;52.248;4.812;2024-01-27T00:15:32;40.87;38.59;43.62;;
69608;Laerm;57251;52.248;4.812;2024-01-27T00:15:42;38.65;36.19;42.53;;
69608;Laerm;57251;52.248;4.812;2024-01-27T00:15:52;37.16;34.99;39.28;;
69608;Laerm;57251;52.248;4.812;2024-01-27T00:16:04;40.02;37.19;42.95;;
69608;Laerm;57251;52.248;4.812;2024-01-27T00:16:15;38.73;37.08;40.97;;
69608;Laerm;57251;52.248;4.812;2024-01-27T00:16:25;38.24;36.49;40.37;;
69608;Laerm;57251;52.248;4.812;2024-01-27T00:16:35;37.49;35.36;42.05;;
69608;Laerm;57251;52.248;4.812;2024-01-27T00:16:46;37.77;35.53;39.77;;
69608;Laerm;57251;52.248;4.812;2024-01-27T00:16:56;37.66;35.90;40.26;;
69608;Laerm;57251;52.248;4.812;2024-01-27T00:17:06;38.75;35.90;41.00;;
69608;Laerm;57251;52.248;4.812;2024-01-27T00:17:16;38.82;36.74;42.05;;
69608;Laerm;57251;52.248;4.812;2024-01-27T00:17:27;38.79;36.58;41.29;;
69608;Laerm;57251;52.248;4.812;2024-01-27T00:17:38;38.58;36.98;40.63;;
69608;Laerm;57251;52.248;4.812;2024-01-27T00:17:48;39.67;36.65;42.05;;
69608;Laerm;57251;52.248;4.812;2024-01-27T00:17:58;38.98;35.67;41.42;;
69608;Laerm;57251;52.248;4.812;2024-01-27T00:18:08;38.15;36.48;41.75;;
69608;Laerm;57251;52.248;4.812;2024-01-27T00:18:19;39.35;36.75;42.24;;
69608;Laerm;57251;52.248;4.812;2024-01-27T00:18:29;39.48;36.65;42.81;;
69608;Laerm;57251;52.248;4.812;2024-01-27T00:18:39;38.49;36.79;40.93;;
69608;Laerm;57251;52.248;4.812;2024-01-27T00:18:50;37.87;36.27;43.70;;
69608;Laerm;57251;52.248;4.812;2024-01-27T00:19:00;40.06;36.20;44.88;;
69608;Laerm;57251;52.248;4.812;2024-01-27T00:19:10;41.41;39.40;43.87;;
69608;Laerm;57251;52.248;4.812;2024-01-27T00:19:21;41.85;39.41;46.96;;
69608;Laerm;57251;52.248;4.812;2024-01-27T00:19:31;41.89;39.30;44.65;;
69608;Laerm;57251;52.248;4.812;2024-01-27T00:19:41;41.38;38.36;48.07;;
69608;Laerm;57251;52.248;4.812;2024-01-27T00:19:51;39.90;36.94;49.46;;
69608;Laerm;57251;52.248;4.812;2024-01-27T00:20:02;38.56;36.17;40.60;;
69608;Laerm;57251;52.248;4.812;2024-01-27T00:20:12;38.08;36.15;39.91;;
69608;Laerm;57251;52.248;4.812;2024-01-27T00:20:23;37.44;35.28;39.78;;
69608;Laerm;57251;52.248;4.812;2024-01-27T00:20:33;36.57;34.77;38.38;;
69608;Laerm;57251;52.248;4.812;2024-01-27T00:20:43;36.46;34.80;39.87;;
69608;Laerm;57251;52.248;4.812;2024-01-27T00:20:54;36.60;34.75;39.78;;
69608;Laerm;57251;52.248;4.812;2024-01-27T00:21:05;36.93;35.40;38.42;;
69608;Laerm;57251;52.248;4.812;2024-01-27T00:21:15;36.92;35.18;39.26;;
69608;Laerm;57251;52.248;4.812;2024-01-27T00:21:26;37.61;35.26;41.52;;
69608;Laerm;57251;52.248;4.812;2024-01-27T00:21:36;37.33;35.01;41.25;;
69608;Laerm;57251;52.248;4.812;2024-01-27T00:21:46;37.75;36.19;39.40;;
69608;Laerm;57251;52.248;4.812;2024-01-27T00:21:57;37.62;35.99;39.49;;
69608;Laerm;57251;52.248;4.812;2024-01-27T00:22:08;39.48;36.73;43.11;;
69608;Laerm;57251;52.248;4.812;2024-01-27T00:22:19;38.39;36.22;40.69;;
69608;Laerm;57251;52.248;4.812;2024-01-27T00:22:30;37.17;35.59;39.24;;
69608;Laerm;57251;52.248;4.812;2024-01-27T00:22:41;36.98;35.23;38.20;;
69608;Laerm;57251;52.248;4.812;2024-01-27T00:22:51;36.61;34.63;38.16;;
69608;Laerm;57251;52.248;4.812;2024-01-27T00:23:02;36.32;34.74;38.03;;
69608;Laerm;57251;52.248;4.812;2024-01-27T00:23:12;36.29;34.66;37.96;;
69608;Laerm;57251;52.248;4.812;2024-01-27T00:23:22;36.11;34.08;37.54;;
69608;Laerm;57251;52.248;4.812;2024-01-27T00:23:33;36.62;34.41;39.03;;
69608;Laerm;57251;52.248;4.812;2024-01-27T00:23:44;37.05;35.08;38.80;;
69608;Laerm;57251;52.248;4.812;2024-01-27T00:23:54;38.62;36.45;41.59;;
69608;Laerm;57251;52.248;4.812;2024-01-27T00:24:10;39.25;37.04;42.77;;
69608;Laerm;57251;52.248;4.812;2024-01-27T00:24:21;40.14;37.43;44.50;;
69608;Laerm;57251;52.248;4.812;2024-01-27T00:24:31;38.25;35.43;42.45;;
69608;Laerm;57251;52.248;4.812;2024-01-27T00:24:41;37.26;35.28;39.70;;
69608;Laerm;57251;52.248;4.812;2024-01-27T00:24:51;38.81;36.24;42.07;;
69608;Laerm;57251;52.248;4.812;2024-01-27T00:25:02;38.92;36.40;41.40;;
69608;Laerm;57251;52.248;4.812;2024-01-27T00:25:12;40.53;37.69;44.88;;
69608;Laerm;57251;52.248;4.812;2024-01-27T00:25:23;39.56;36.85;45.52;;
69608;Laerm;57251;52.248;4.812;2024-01-27T00:25:33;38.37;35.47;40.56;;
69608;Laerm;57251;52.248;4.812;2024-01-27T00:25:43;39.03;36.35;41.25;;
69608;Laerm;57251;52.248;4.812;2024-01-27T00:25:54;39.83;37.80;42.67;;
69608;Laerm;57251;52.248;4.812;2024-01-27T00:26:04;41.36;38.37;44.78;;
69608;Laerm;57251;52.248;4.812;2024-01-27T00:26:14;38.39;35.33;40.80;;
69608;Laerm;57251;52.248;4.812;2024-01-27T00:26:25;36.95;34.68;52.02;;
69608;Laerm;57251;52.248;4.812;2024-01-27T00:26:35;37.42;35.74;38.96;;
69608;Laerm;57251;52.248;4.812;2024-01-27T00:26:45;38.56;36.73;40.68;;
69608;Laerm;57251;52.248;4.812;2024-01-27T00:26:55;38.41;36.71;40.03;;
69608;Laerm;57251;52.248;4.812;2024-01-27T00:27:06;37.64;35.02;39.40;;
69608;Laerm;57251;52.248;4.812;2024-01-27T00:27:17;37.56;35.34;41.84;;
69608;Laerm;57251;52.248;4.812;2024-01-27T00:27:27;37.46;35.40;39.91;;
69608;Laerm;57251;52.248;4.812;2024-01-27T00:27:37;37.43;35.52;38.81;;
69608;Laerm;57251;52.248;4.812;2024-01-27T00:27:47;37.38;34.96;41.67;;
69608;Laerm;57251;52.248;4.812;2024-01-27T00:27:58;36.60;34.68;38.24;;
69608;Laerm;57251;52.248;4.812;2024-01-27T00:28:08;39.27;36.11;42.60;;
69608;Laerm;57251;52.248;4.812;2024-01-27T00:28:18;39.11;37.53;41.40;;
69608;Laerm;57251;52.248;4.812;2024-01-27T00:28:28;38.55;36.61;41.03;;
69608;Laerm;57251;52.248;4.812;2024-01-27T00:28:39;38.07;36.50;39.54;;
69608;Laerm;57251;52.248;4.812;2024-01-27T00:28:49;38.63;36.05;41.27;;
69608;Laerm;57251;52.248;4.812;2024-01-27T00:28:59;38.17;36.37;40.08;;
69608;Laerm;57251;52.248;4.812;2024-01-27T00:29:09;38.92;36.73;42.27;;
69608;Laerm;57251;52.248;4.812;2024-01-27T00:29:20;40.66;38.44;43.04;;
69608;Laerm;57251;52.248;4.812;2024-01-27T00:29:30;40.00;36.83;42.71;;
69608;Laerm;57251;52.248;4.812;2024-01-27T00:29:40;38.77;36.71;42.32;;
69608;Laerm;57251;52.248;4.812;2024-01-27T00:29:51;39.18;37.26;42.14;;
69608;Laerm;57251;52.248;4.812;2024-01-27T00:30:01;39.95;38.15;42.70;;
69608;Laerm;57251;52.248;4.812;2024-01-27T00:30:12;39.67;36.88;41.72;;
69608;Laerm;57251;52.248;4.812;2024-01-27T00:30:23;39.70;37.53;43.55;;
69608;Laerm;57251;52.248;4.812;2024-01-27T00:30:33;37.04;35.23;39.50;;
69608;Laerm;57251;52.248;4.812;2024-01-27T00:30:43;37.62;34.67;41.86;;
69608;Laerm;57251;52.248;4.812;2024-01-27T00:30:54;39.88;37.09;43.11;;
69608;Laerm;57251;52.248;4.812;2024-01-27T00:31:04;39.18;36.87;45.58;;
69608;Laerm;57251;52.248;4.812;2024-01-27T00:31:14;39.02;37.08;40.57;;
69608;Laerm;57251;52.248;4.812;2024-01-27T00:31:24;38.13;35.80;41.43;;
69608;Laerm;57251;52.248;4.812;2024-01-27T00:31:35;38.94;35.66;42.60;;
69608;Laerm;57251;52.248;4.812;2024-01-27T00:31:45;40.33;37.35;44.72;;
69608;Laerm;57251;52.248;4.812;2024-01-27T00:31:55;39.46;37.27;44.11;;
69608;Laerm;57251;52.248;4.812;2024-01-27T00:32:06;39.62;36.62;42.22;;
69608;Laerm;57251;52.248;4.812;2024-01-27T00:32:16;40.31;38.00;43.08;;
69608;Laerm;57251;52.248;4.812;2024-01-27T00:32:26;39.37;36.54;42.18;;
69608;Laerm;57251;52.248;4.812;2024-01-27T00:32:37;39.07;36.86;40.90;;
69608;Laerm;57251;52.248;4.812;2024-01-27T00:32:47;39.23;36.88;42.04;;
69608;Laerm;57251;52.248;4.812;2024-01-27T00:32:57;37.65;36.17;39.91;;
69608;Laerm;57251;52.248;4.812;2024-01-27T00:33:08;37.54;35.75;39.46;;
69608;Laerm;57251;52.248;4.812;2024-01-27T00:33:18;37.55;35.79;38.90;;
69608;Laerm;57251;52.248;4.812;2024-01-27T00:33:29;36.96;35.16;39.17;;
69608;Laerm;57251;52.248;4.812;2024-01-27T00:33:39;36.60;35.09;38.13;;
69608;Laerm;57251;52.248;4.812;2024-01-27T00:33:49;36.50;35.13;38.52;;
69608;Laerm;57251;52.248;4.812;2024-01-27T00:33:59;37.34;35.89;39.16;;
69608;Laerm;57251;52.248;4.812;2024-01-27T00:34:10;36.36;34.52;37.94;;
69608;Laerm;57251;52.248;4.812;2024-01-27T00:34:20;36.00;34.43;37.97;;
69608;Laerm;57251;52.248;4.812;2024-01-27T00:34:31;36.48;34.41;39.25;;
69608;Laerm;57251;52.248;4.812;2024-01-27T00:34:41;37.79;35.05;41.40;;
69608;Laerm;57251;52.248;4.812;2024-01-27T00:34:51;37.50;35.14;38.90;;
69608;Laerm;57251;52.248;4.812;2024-01-27T00:35:02;37.35;35.70;39.38;;
69608;Laerm;57251;52.248;4.812;2024-01-27T00:35:13;42.81;37.39;52.25;;
69608;Laerm;57251;52.248;4.812;2024-01-27T00:35:24;43.65;38.24;53.59;;
69608;Laerm;57251;52.248;4.812;2024-01-27T00:35:35;41.05;37.50;51.06;;
69608;Laerm;57251;52.248;4.812;2024-01-27T00:35:45;39.41;36.73;46.09;;
69608;Laerm;57251;52.248;4.812;2024-01-27T00:35:55;40.74;37.11;54.86;;
69608;Laerm;57251;52.248;4.812;2024-01-27T00:36:06;37.82;36.06;39.44;;
69608;Laerm;57251;52.248;4.812;2024-01-27T00:36:16;37.84;34.90;40.88;;
69608;Laerm;57251;52.248;4.812;2024-01-27T00:36:28;39.80;37.28;47.46;;
69608;Laerm;57251;52.248;4.812;2024-01-27T00:36:38;38.60;36.31;40.61;;
69608;Laerm;57251;52.248;4.812;2024-01-27T00:36:48;39.00;37.00;41.06;;
69608;Laerm;57251;52.248;4.812;2024-01-27T00:36:59;39.27;36.68;42.46;;
69608;Laerm;57251;52.248;4.812;2024-01-27T00:37:10;37.36;35.23;39.53;;
69608;Laerm;57251;52.248;4.812;2024-01-27T00:37:20;36.49;34.36;38.33;;
69608;Laerm;57251;52.248;4.812;2024-01-27T00:37:30;36.64;35.16;38.13;;
69608;Laerm;57251;52.248;4.812;2024-01-27T00:37:41;37.11;34.59;44.65;;
69608;Laerm;57251;52.248;4.812;2024-01-27T00:37:51;36.43;34.82;40.14;;
69608;Laerm;57251;52.248;4.812;2024-01-27T00:38:01;36.75;34.92;44.87;;
69608;Laerm;57251;52.248;4.812;2024-01-27T00:38:12;36.70;34.88;39.44;;
69608;Laerm;57251;52.248;4.812;2024-01-27T00:38:23;37.44;34.99;39.68;;
69608;Laerm;57251;52.248;4.812;2024-01-27T00:38:33;38.17;35.69;51.32;;
69608;Laerm;57251;52.248;4.812;2024-01-27T00:38:43;37.73;35.59;43.87;;
69608;Laerm;57251;52.248;4.812;2024-01-27T00:38:54;36.53;34.74;39.16;;
69608;Laerm;57251;52.248;4.812;2024-01-27T00:39:04;36.85;35.02;38.37;;
69608;Laerm;57251;52.248;4.812;2024-01-27T00:39:17;37.45;35.82;39.24;;
69608;Laerm;57251;52.248;4.812;2024-01-27T00:39:28;50.11;34.86;64.10;;
69608;Laerm;57251;52.248;4.812;2024-01-27T00:39:38;51.58;37.08;64.57;;
69608;Laerm;57251;52.248;4.812;2024-01-27T00:39:48;37.25;34.81;40.26;;
69608;Laerm;57251;52.248;4.812;2024-01-27T00:39:59;38.00;36.24;42.39;;
69608;Laerm;57251;52.248;4.812;2024-01-27T00:40:09;37.04;35.50;38.51;;
69608;Laerm;57251;52.248;4.812;2024-01-27T00:40:20;37.38;35.21;39.61;;
69608;Laerm;57251;52.248;4.812;2024-01-27T00:40:30;38.04;36.09;40.53;;
69608;Laerm;57251;52.248;4.812;2024-01-27T00:40:40;37.94;36.11;39.92;;
69608;Laerm;57251;52.248;4.812;2024-01-27T00:40:51;37.80;35.86;41.10;;
69608;Laerm;57251;52.248;4.812;2024-01-27T00:41:01;36.51;34.59;38.16;;
69608;Laerm;57251;52.248;4.812;2024-01-27T00:41:18;36.61;34.53;39.88;;
69608;Laerm;57251;52.248;4.812;2024-01-27T00:41:28;38.20;35.23;55.05;;
69608;Laerm;57251;52.248;4.812;2024-01-27T00:41:38;37.99;35.22;53.96;;
69608;Laerm;57251;52.248;4.812;2024-01-27T00:41:48;37.11;35.18;47.20;;
69608;Laerm;57251;52.248;4.812;2024-01-27T00:41:59;36.73;34.45;46.36;;
69608;Laerm;57251;52.248;4.812;2024-01-27T00:42:09;37.83;35.65;42.26;;
69608;Laerm;57251;52.248;4.812;2024-01-27T00:42:20;37.75;35.27;43.78;;
69608;Laerm;57251;52.248;4.812;2024-01-27T00:42:34;37.36;35.22;40.23;;
69608;Laerm;57251;52.248;4.812;2024-01-27T00:42:44;37.27;35.42;40.96;;
69608;Laerm;57251;52.248;4.812;2024-01-27T00:42:54;38.65;36.13;40.75;;
69608;Laerm;57251;52.248;4.812;2024-01-27T00:43:04;39.58;37.20;41.90;;
69608;Laerm;57251;52.248;4.812;2024-01-27T00:43:15;40.30;36.82;43.61;;
69608;Laerm;57251;52.248;4.812;2024-01-27T00:43:25;43.76;39.91;46.79;;
69608;Laerm;57251;52.248;4.812;2024-01-27T00:43:35;39.04;36.34;41.75;;
69608;Laerm;57251;52.248;4.812;2024-01-27T00:43:45;37.35;35.32;38.85;;
69608;Laerm;57251;52.248;4.812;2024-01-27T00:43:56;36.27;34.96;37.65;;
69608;Laerm;57251;52.248;4.812;2024-01-27T00:44:06;37.76;34.97;41.11;;
69608;Laerm;57251;52.248;4.812;2024-01-27T00:44:16;38.54;36.24;41.36;;
69608;Laerm;57251;52.248;4.812;2024-01-27T00:44:27;37.87;35.85;40.20;;
69608;Laerm;57251;52.248;4.812;2024-01-27T00:44:37;37.43;35.27;41.40;;
69608;Laerm;57251;52.248;4.812;2024-01-27T00:44:48;36.66;34.94;38.28;;
69608;Laerm;57251;52.248;4.812;2024-01-27T00:44:58;36.57;34.68;41.93;;
69608;Laerm;57251;52.248;4.812;2024-01-27T00:45:08;36.93;34.49;39.97;;
69608;Laerm;57251;52.248;4.812;2024-01-27T00:45:18;38.26;35.95;42.20;;
69608;Laerm;57251;52.248;4.812;2024-01-27T00:45:29;38.48;36.25;41.00;;
69608;Laerm;57251;52.248;4.812;2024-01-27T00:45:40;37.28;34.33;39.95;;
69608;Laerm;57251;52.248;4.812;2024-01-27T00:45:50;37.23;34.66;46.46;;
69608;Laerm;57251;52.248;4.812;2024-01-27T00:46:00;36.30;34.86;38.42;;
69608;Laerm;57251;52.248;4.812;2024-01-27T00:46:11;36.40;34.86;37.69;;
69608;Laerm;57251;52.248;4.812;2024-01-27T00:46:21;37.17;35.49;39.04;;
69608;Laerm;57251;52.248;4.812;2024-01-27T00:46:31;37.72;35.77;40.07;;
69608;Laerm;57251;52.248;4.812;2024-01-27T00:46:42;37.67;35.66;39.55;;
69608;Laerm;57251;52.248;4.812;2024-01-27T00:46:52;37.13;35.13;38.99;;
69608;Laerm;57251;52.248;4.812;2024-01-27T00:47:03;37.08;34.64;39.31;;
69608;Laerm;57251;52.248;4.812;2024-01-27T00:47:13;36.44;34.95;37.94;;
69608;Laerm;57251;52.248;4.812;2024-01-27T00:47:23;38.33;34.62;42.60;;
69608;Laerm;57251;52.248;4.812;2024-01-27T00:47:34;40.52;38.11;43.86;;
69608;Laerm;57251;52.248;4.812;2024-01-27T00:47:44;40.22;37.02;43.19;;
69608;Laerm;57251;52.248;4.812;2024-01-27T00:47:54;37.79;35.54;40.39;;
69608;Laerm;57251;52.248;4.812;2024-01-27T00:48:05;37.61;35.51;39.63;;
69608;Laerm;57251;52.248;4.812;2024-01-27T00:48:15;38.86;36.37;41.83;;
69608;Laerm;57251;52.248;4.812;2024-01-27T00:48:26;37.35;35.34;39.34;;
69608;Laerm;57251;52.248;4.812;2024-01-27T00:48:36;37.04;35.38;40.11;;
69608;Laerm;57251;52.248;4.812;2024-01-27T00:48:46;37.44;35.46;40.52;;
69608;Laerm;57251;52.248;4.812;2024-01-27T00:48:56;38.57;36.05;42.95;;
69608;Laerm;57251;52.248;4.812;2024-01-27T00:49:07;38.78;36.62;41.17;;
69608;Laerm;57251;52.248;4.812;2024-01-27T00:49:17;37.87;36.10;39.81;;
69608;Laerm;57251;52.248;4.812;2024-01-27T00:49:28;36.90;34.98;39.22;;
69608;Laerm;57251;52.248;4.812;2024-01-27T00:49:38;35.58;34.43;37.17;;
69608;Laerm;57251;52.248;4.812;2024-01-27T00:49:48;36.07;34.27;38.29;;
69608;Laerm;57251;52.248;4.812;2024-01-27T00:49:59;36.03;34.06;37.69;;
69608;Laerm;57251;52.248;4.812;2024-01-27T00:50:09;36.14;34.45;37.73;;
69608;Laerm;57251;52.248;4.812;2024-01-27T00:50:19;36.72;35.04;38.53;;
69608;Laerm;57251;52.248;4.812;2024-01-27T00:50:30;37.00;35.40;39.51;;
69608;Laerm;57251;52.248;4.812;2024-01-27T00:50:40;36.84;34.48;39.99;;
69608;Laerm;57251;52.248;4.812;2024-01-27T00:50:50;36.57;35.00;38.51;;
69608;Laerm;57251;52.248;4.812;2024-01-27T00:51:00;36.46;35.10;38.43;;
69608;Laerm;57251;52.248;4.812;2024-01-27T00:51:11;35.72;34.19;37.09;;
69608;Laerm;57251;52.248;4.812;2024-01-27T00:51:21;35.50;34.02;37.18;;
69608;Laerm;57251;52.248;4.812;2024-01-27T00:51:32;36.11;33.98;38.01;;
69608;Laerm;57251;52.248;4.812;2024-01-27T00:51:42;36.11;33.99;37.60;;
69608;Laerm;57251;52.248;4.812;2024-01-27T00:51:52;38.64;34.77;40.91;;
69608;Laerm;57251;52.248;4.812;2024-01-27T00:52:03;39.95;36.32;44.97;;
69608;Laerm;57251;52.248;4.812;2024-01-27T00:52:13;38.10;34.38;42.32;;
69608;Laerm;57251;52.248;4.812;2024-01-27T00:52:23;36.42;34.95;38.09;;
69608;Laerm;57251;52.248;4.812;2024-01-27T00:52:34;37.07;35.26;38.66;;
69608;Laerm;57251;52.248;4.812;2024-01-27T00:52:45;36.12;34.38;37.80;;
69608;Laerm;57251;52.248;4.812;2024-01-27T00:52:55;36.20;34.03;37.97;;
69608;Laerm;57251;52.248;4.812;2024-01-27T00:53:05;35.64;33.97;39.53;;
69608;Laerm;57251;52.248;4.812;2024-01-27T00:53:15;35.46;33.78;40.98;;
69608;Laerm;57251;52.248;4.812;2024-01-27T00:53:26;35.87;34.29;38.24;;
69608;Laerm;57251;52.248;4.812;2024-01-27T00:53:36;35.59;34.16;37.41;;
69608;Laerm;57251;52.248;4.812;2024-01-27T00:53:46;35.35;33.72;36.93;;
69608;Laerm;57251;52.248;4.812;2024-01-27T00:53:56;36.33;34.01;38.40;;
69608;Laerm;57251;52.248;4.812;2024-01-27T00:54:07;36.20;34.55;38.72;;
69608;Laerm;57251;52.248;4.812;2024-01-27T00:54:17;36.68;34.88;39.09;;
69608;Laerm;57251;52.248;4.812;2024-01-27T00:54:27;37.34;35.01;41.10;;
69608;Laerm;57251;52.248;4.812;2024-01-27T00:54:38;38.29;35.41;47.02;;
69608;Laerm;57251;52.248;4.812;2024-01-27T00:54:48;35.86;34.08;37.63;;
69608;Laerm;57251;52.248;4.812;2024-01-27T00:54:58;37.18;34.34;40.16;;
69608;Laerm;57251;52.248;4.812;2024-01-27T00:55:09;38.41;36.11;41.02;;
69608;Laerm;57251;52.248;4.812;2024-01-27T00:55:19;38.33;35.81;40.46;;
69608;Laerm;57251;52.248;4.812;2024-01-27T00:55:29;37.54;34.63;40.53;;
69608;Laerm;57251;52.248;4.812;2024-01-27T00:55:39;36.24;34.70;39.46;;
69608;Laerm;57251;52.248;4.812;2024-01-27T00:55:50;36.13;34.64;38.04;;
69608;Laerm;57251;52.248;4.812;2024-01-27T00:56:00;37.68;35.31;40.87;;
69608;Laerm;57251;52.248;4.812;2024-01-27T00:56:11;37.54;35.16;40.16;;
69608;Laerm;57251;52.248;4.812;2024-01-27T00:56:21;38.54;35.36;41.12;;
69608;Laerm;57251;52.248;4.812;2024-01-27T00:56:34;39.14;36.48;42.59;;
69608;Laerm;57251;52.248;4.812;2024-01-27T00:56:44;38.60;34.79;41.76;;
69608;Laerm;57251;52.248;4.812;2024-01-27T00:56:55;36.33;34.21;41.49;;
69608;Laerm;57251;52.248;4.812;2024-01-27T00:57:05;37.63;35.36;39.64;;
69608;Laerm;57251;52.248;4.812;2024-01-27T00:57:15;37.98;36.11;39.88;;
69608;Laerm;57251;52.248;4.812;2024-01-27T00:57:26;37.41;34.53;39.40;;
69608;Laerm;57251;52.248;4.812;2024-01-27T00:57:36;36.74;34.72;38.43;;
69608;Laerm;57251;52.248;4.812;2024-01-27T00:57:48;36.34;34.79;38.75;;
69608;Laerm;57251;52.248;4.812;2024-01-27T00:57:58;36.63;33.87;44.70;;
69608;Laerm;57251;52.248;4.812;2024-01-27T00:58:08;36.26;34.48;37.82;;
69608;Laerm;57251;52.248;4.812;2024-01-27T00:58:19;36.34;34.58;38.35;;
69608;Laerm;57251;52.248;4.812;2024-01-27T00:58:29;36.30;34.63;37.91;;
69608;Laerm;57251;52.248;4.812;2024-01-27T00:58:39;36.34;34.45;38.37;;